createdAt,value
2023-05-01T00:00:52.123Z,47.28
2023-05-01T00:03:23.025Z,47.36
2023-05-01T00:06:00.492Z,47.50
2023-05-01T00:08:31.859Z,47.46
2023-05-01T00:11:09.977Z,47.43
2023-05-01T00:13:41.106Z,47.62
2023-05-01T00:16:13.093Z,47.66
2023-05-01T00:18:44.007Z,47.66
2023-05-01T00:21:14.827Z,47.72
2023-05-01T00:23:45.676Z,47.74
2023-05-01T00:26:17.026Z,47.96
2023-05-01T00:28:49.952Z,48.11
2023-05-01T00:31:21.247Z,48.15
2023-05-01T00:33:52.453Z,48.16
2023-05-01T00:36:23.814Z,48.14
2023-05-01T00:38:54.659Z,48.29
2023-05-01T00:41:25.537Z,48.35
2023-05-01T00:43:56.330Z,48.44
2023-05-01T00:46:27.769Z,48.46
2023-05-01T00:48:59.979Z,48.62
2023-05-01T00:51:33.201Z,48.84
2023-05-01T00:54:06.713Z,48.80
2023-05-01T00:56:38.683Z,48.86
2023-05-01T00:59:09.863Z,48.93
2023-05-01T01:01:42.484Z,48.94
2023-05-01T01:04:13.474Z,49.06
2023-05-01T01:06:53.156Z,49.13
2023-05-01T01:09:34.492Z,49.20
2023-05-01T01:12:17.921Z,49.29
2023-05-01T01:14:56.738Z,49.30
2023-05-01T01:17:33.249Z,49.23
2023-05-01T01:20:25.991Z,49.21
2023-05-01T01:23:13.605Z,49.21
2023-05-01T01:26:01.646Z,49.31
2023-05-01T01:29:03.785Z,49.48
2023-05-01T01:31:41.555Z,49.47
2023-05-01T01:34:17.668Z,49.57
2023-05-01T01:36:57.149Z,49.67
2023-05-01T01:39:38.034Z,49.60
2023-05-01T01:42:13.313Z,49.64
2023-05-01T01:44:49.122Z,49.88
2023-05-01T01:47:19.198Z,49.99
2023-05-01T01:49:53.226Z,50.05
2023-05-01T01:52:26.202Z,50.24
2023-05-01T01:54:59.680Z,50.17
2023-05-01T01:57:32.706Z,50.30
2023-05-01T02:00:08.976Z,50.33
2023-05-01T02:02:44.887Z,50.35
2023-05-01T02:05:18.264Z,50.36
2023-05-01T02:07:51.384Z,50.42
2023-05-01T02:10:24.226Z,50.47
2023-05-01T02:12:59.393Z,50.55
2023-05-01T02:15:31.510Z,50.35
2023-05-01T02:18:05.163Z,50.28
2023-05-01T02:20:38.961Z,50.35
2023-05-01T02:23:11.566Z,50.47
2023-05-01T02:25:43.833Z,50.66
2023-05-01T02:28:16.630Z,50.70
2023-05-01T02:30:47.536Z,50.79
2023-05-01T02:33:18.530Z,50.73
2023-05-01T02:35:49.674Z,50.72
2023-05-01T02:38:21.457Z,50.77
2023-05-01T02:40:56.071Z,50.76
2023-05-01T02:43:29.977Z,50.75
2023-05-01T02:46:03.043Z,50.91
2023-05-01T02:48:35.435Z,51.20
2023-05-01T02:51:08.341Z,51.15
2023-05-01T02:53:40.662Z,51.34
2023-05-01T02:56:18.881Z,51.29
2023-05-01T02:58:50.433Z,51.49
2023-05-01T03:01:21.831Z,51.50
2023-05-01T03:03:52.859Z,51.28
2023-05-01T03:06:24.185Z,51.07
2023-05-01T03:08:55.029Z,51.28
2023-05-01T03:11:25.880Z,51.22
2023-05-01T03:13:56.701Z,51.49
2023-05-01T03:16:28.343Z,51.78
2023-05-01T03:18:59.216Z,51.83
2023-05-01T03:21:29.971Z,51.68
2023-05-01T03:24:00.841Z,51.61
2023-05-01T03:26:33.407Z,51.41
2023-05-01T03:29:04.146Z,51.40
2023-05-01T03:31:35.057Z,51.52
2023-05-01T03:34:05.984Z,51.85
2023-05-01T03:36:37.613Z,51.63
2023-05-01T03:39:09.429Z,52.00
2023-05-01T03:42:03.038Z,51.89
2023-05-01T03:44:40.014Z,51.84
2023-05-01T03:47:11.487Z,51.79
2023-05-01T03:49:45.373Z,51.82
2023-05-01T03:52:16.734Z,51.81
2023-05-01T03:54:47.599Z,52.04
2023-05-01T03:57:27.051Z,52.03
2023-05-01T03:59:58.118Z,52.05
2023-05-01T04:02:29.436Z,51.95
2023-05-01T04:05:00.994Z,51.72
2023-05-01T04:07:33.201Z,51.38
2023-05-01T04:10:04.786Z,50.84
2023-05-01T04:12:35.616Z,50.45
2023-05-01T04:15:07.748Z,49.69
2023-05-01T04:17:39.761Z,49.20
2023-05-01T04:20:12.452Z,48.49
2023-05-01T04:22:43.541Z,47.71
2023-05-01T04:25:14.463Z,47.00
2023-05-01T04:27:45.591Z,46.40
2023-05-01T04:30:16.930Z,45.40
2023-05-01T04:32:47.849Z,44.34
2023-05-01T04:35:19.269Z,43.84
2023-05-01T04:37:50.211Z,43.20
2023-05-01T04:40:21.164Z,42.53
2023-05-01T04:42:51.963Z,41.92
2023-05-01T04:45:22.749Z,41.56
2023-05-01T04:47:53.988Z,40.89
2023-05-01T04:50:24.858Z,40.10
2023-05-01T04:52:55.734Z,39.65
2023-05-01T04:55:27.161Z,38.93
2023-05-01T04:58:07.014Z,38.12
2023-05-01T05:00:38.650Z,37.57
2023-05-01T05:03:10.966Z,36.98
2023-05-01T05:05:42.089Z,36.03
2023-05-01T05:08:12.967Z,35.19
2023-05-01T05:10:45.458Z,34.60
2023-05-01T05:13:48.641Z,33.75
2023-05-01T05:16:19.794Z,33.05
2023-05-01T05:18:50.692Z,33.26
2023-05-01T05:21:22.128Z,33.00
2023-05-01T05:23:56.169Z,32.54
2023-05-01T05:26:29.637Z,32.31
2023-05-01T05:29:02.387Z,31.54
2023-05-01T05:31:33.447Z,31.28
2023-05-01T05:34:04.263Z,30.37
2023-05-01T05:36:35.639Z,29.83
2023-05-01T05:39:06.685Z,29.06
2023-05-01T05:41:37.961Z,28.35
2023-05-01T05:44:08.764Z,28.57
2023-05-01T05:46:39.891Z,27.99
2023-05-01T05:49:10.941Z,27.49
2023-05-01T05:51:41.943Z,27.57
2023-05-01T05:54:13.498Z,27.09
2023-05-01T05:56:45.965Z,26.27
2023-05-01T05:59:17.602Z,25.26
2023-05-01T06:02:12.589Z,24.39
2023-05-01T06:04:43.564Z,24.47
2023-05-01T06:07:14.604Z,24.36
2023-05-01T06:09:45.458Z,24.14
2023-05-01T06:12:16.724Z,24.42
2023-05-01T06:14:48.703Z,24.14
2023-05-01T06:17:19.578Z,24.17
2023-05-01T06:19:52.542Z,24.11
2023-05-01T06:22:23.569Z,23.67
2023-05-01T06:25:12.749Z,23.33
2023-05-01T06:27:43.764Z,22.97
2023-05-01T06:30:15.276Z,23.09
2023-05-01T06:32:46.978Z,23.28
2023-05-01T06:35:18.380Z,22.53
2023-05-01T06:37:59.304Z,22.00
2023-05-01T06:40:31.817Z,22.05
2023-05-01T06:43:02.608Z,21.90
2023-05-01T06:45:33.307Z,21.79
2023-05-01T06:48:04.137Z,21.59
2023-05-01T06:50:34.911Z,21.13
2023-05-01T06:53:06.025Z,20.57
2023-05-01T06:55:36.748Z,20.77
2023-05-01T06:58:22.509Z,20.70
2023-05-01T07:00:55.572Z,20.53
2023-05-01T07:03:28.193Z,20.58
2023-05-01T07:06:01.351Z,20.82
2023-05-01T07:08:32.608Z,20.89
2023-05-01T07:11:03.651Z,20.94
2023-05-01T07:13:34.545Z,20.89
2023-05-01T07:16:05.571Z,20.38
2023-05-01T07:18:39.646Z,20.49
2023-05-01T07:21:12.068Z,20.22
2023-05-01T07:23:42.820Z,20.28
2023-05-01T07:26:13.565Z,20.43
2023-05-01T07:28:44.290Z,20.73
2023-05-01T07:31:15.577Z,21.01
2023-05-01T07:33:47.647Z,20.85
2023-05-01T07:36:20.656Z,21.60
2023-05-01T07:38:51.616Z,21.26
2023-05-01T07:41:22.980Z,21.33
2023-05-01T07:43:53.735Z,21.58
2023-05-01T07:46:24.610Z,21.59
2023-05-01T07:48:55.408Z,21.93
2023-05-01T07:51:26.165Z,22.46
2023-05-01T07:53:56.806Z,22.91
2023-05-01T07:56:27.611Z,23.24
2023-05-01T07:58:58.309Z,23.52
2023-05-01T08:01:29.180Z,23.76
2023-05-01T08:04:00.041Z,24.03
2023-05-01T08:06:31.881Z,24.25
2023-05-01T08:09:02.904Z,24.61
2023-05-01T08:11:33.912Z,24.13
2023-05-01T08:14:05.426Z,24.00
2023-05-01T08:26:06.423Z,24.52
2023-05-01T08:29:01.148Z,24.45
2023-05-01T08:31:32.042Z,24.23
2023-05-01T08:34:28.056Z,23.96
2023-05-01T08:37:01.782Z,24.25
2023-05-01T08:39:32.758Z,24.62
2023-05-01T08:42:15.204Z,24.87
2023-05-01T08:45:06.108Z,24.61
2023-05-01T08:47:52.951Z,24.87
2023-05-01T08:50:48.643Z,25.44
2023-05-01T08:53:28.080Z,25.53
2023-05-01T08:56:07.083Z,25.14
2023-05-01T08:58:38.852Z,25.16
2023-05-01T09:01:10.806Z,25.71
2023-05-01T09:03:44.633Z,25.81
2023-05-01T09:07:07.995Z,25.90
2023-05-01T09:53:11.736Z,23.91
2023-05-01T09:55:43.368Z,24.02
2023-05-01T09:58:33.119Z,23.95
2023-05-01T10:01:23.296Z,23.92
2023-05-01T10:13:18.685Z,25.28
2023-05-01T10:15:50.408Z,24.78
2023-05-01T10:18:21.985Z,24.24
2023-05-01T10:21:42.703Z,24.27
2023-05-01T10:29:27.311Z,24.86
2023-05-01T10:48:15.947Z,25.27
2023-05-01T10:51:17.268Z,25.15
2023-05-01T10:57:49.325Z,25.05
2023-05-01T11:00:22.188Z,25.04
2023-05-01T11:11:54.114Z,24.99
2023-05-01T11:14:25.120Z,25.36
2023-05-01T11:16:56.128Z,25.42
2023-05-01T11:24:15.334Z,26.01
2023-05-01T11:37:59.841Z,25.39
2023-05-01T11:40:39.135Z,24.98
2023-05-01T11:43:12.794Z,24.95
2023-05-01T11:46:37.041Z,25.28
2023-05-01T11:49:30.731Z,25.49
2023-05-01T11:52:04.403Z,25.51
2023-05-01T11:55:30.868Z,25.82
2023-05-01T11:58:08.773Z,25.84
2023-05-01T12:00:41.950Z,25.38
2023-05-01T12:03:44.945Z,25.31
2023-05-01T12:06:48.401Z,25.59
2023-05-01T12:09:24.445Z,25.65
2023-05-01T12:12:11.654Z,25.80
2023-05-01T12:14:43.590Z,25.76
2023-05-01T12:17:21.960Z,25.75
2023-05-01T12:19:53.259Z,25.86
2023-05-01T12:22:24.466Z,26.01
2023-05-01T12:24:56.068Z,26.01
2023-05-01T12:27:27.160Z,26.20
2023-05-01T12:29:58.030Z,26.14
2023-05-01T12:32:34.695Z,26.32
2023-05-01T12:35:15.517Z,26.54
2023-05-01T12:37:48.726Z,26.47
2023-05-01T12:40:20.062Z,26.31
2023-05-01T12:42:58.195Z,25.98
2023-05-01T12:45:29.323Z,25.96
2023-05-01T12:48:00.185Z,26.06
2023-05-01T12:50:37.268Z,25.99
2023-05-01T12:53:09.868Z,25.82
2023-05-01T12:55:47.859Z,25.69
2023-05-01T12:58:24.968Z,26.00
2023-05-01T13:00:56.715Z,26.32
2023-05-01T13:03:44.482Z,25.91
2023-05-01T13:06:15.570Z,26.08
2023-05-01T13:08:55.697Z,26.07
2023-05-01T13:11:34.629Z,26.14
2023-05-01T13:14:10.598Z,26.30
2023-05-01T13:16:55.242Z,26.08
2023-05-01T13:19:31.671Z,25.91
2023-05-01T13:22:02.745Z,26.08
2023-05-01T13:24:41.343Z,26.16
2023-05-01T13:27:22.455Z,26.17
2023-05-01T13:29:58.007Z,26.16
2023-05-01T13:32:29.361Z,26.28
2023-05-01T13:35:04.804Z,26.26
2023-05-01T13:41:20.922Z,26.04
2023-05-01T13:43:53.451Z,25.98
2023-05-01T13:46:27.120Z,25.83
2023-05-01T13:48:58.895Z,25.85
2023-05-01T13:51:29.647Z,26.05
2023-05-01T13:54:11.286Z,26.34
2023-05-01T13:56:43.204Z,26.16
2023-05-01T13:59:13.893Z,26.20
2023-05-01T14:01:49.192Z,25.88
2023-05-01T14:04:21.817Z,25.62
2023-05-01T14:06:55.676Z,25.71
2023-05-01T14:09:26.869Z,25.51
2023-05-01T14:12:01.033Z,25.47
2023-05-01T14:14:34.972Z,25.46
2023-05-01T14:17:06.033Z,25.45
2023-05-01T14:19:37.576Z,25.13
2023-05-01T14:22:09.866Z,25.12
2023-05-01T14:24:54.200Z,25.24
2023-05-01T14:27:25.113Z,25.53
2023-05-01T14:29:57.613Z,25.76
2023-05-01T14:32:30.101Z,25.80
2023-05-01T14:35:10.994Z,25.88
2023-05-01T14:38:52.829Z,26.04
2023-05-01T14:41:24.049Z,26.11
2023-05-01T14:43:54.955Z,26.08
2023-05-01T14:46:49.782Z,26.12
2023-05-01T14:49:26.276Z,26.32
2023-05-01T14:51:57.210Z,26.44
2023-05-01T14:54:28.196Z,26.40
2023-05-01T14:57:01.439Z,26.36
2023-05-01T15:00:02.726Z,26.32
2023-05-01T15:02:33.762Z,26.27
2023-05-01T15:05:04.807Z,26.18
2023-05-01T15:07:35.606Z,26.43
2023-05-01T15:10:07.106Z,26.29
2023-05-01T15:12:44.048Z,26.14
2023-05-01T15:15:15.032Z,26.11
2023-05-01T15:17:45.826Z,25.86
2023-05-01T15:20:16.665Z,25.90
2023-05-01T15:22:47.400Z,25.85
2023-05-01T15:25:27.211Z,25.77
2023-05-01T15:27:58.057Z,25.96
2023-05-01T15:30:28.871Z,26.06
2023-05-01T15:32:59.986Z,26.09
2023-05-01T15:35:31.308Z,26.11
2023-05-01T15:38:04.034Z,26.11
2023-05-01T15:40:35.110Z,26.14
2023-05-01T15:43:07.746Z,26.15
2023-05-01T15:45:43.393Z,26.24
2023-05-01T15:48:14.710Z,26.35
2023-05-01T15:51:33.777Z,26.57
2023-05-01T15:54:05.852Z,26.98
2023-05-01T15:56:38.924Z,27.04
2023-05-01T15:59:10.353Z,27.08
2023-05-01T16:01:47.438Z,27.04
2023-05-01T16:04:19.415Z,27.00
2023-05-01T16:07:15.343Z,27.17
2023-05-01T16:09:46.780Z,27.24
2023-05-01T16:12:18.168Z,27.16
2023-05-01T16:14:50.900Z,27.22
2023-05-01T16:17:26.287Z,27.37
2023-05-01T16:19:57.294Z,27.53
2023-05-01T16:22:29.182Z,27.67
2023-05-01T16:25:01.991Z,27.87
2023-05-01T16:27:32.882Z,27.86
2023-05-01T16:30:09.095Z,27.75
2023-05-01T16:32:41.134Z,27.87
2023-05-01T16:35:18.932Z,27.94
2023-05-01T16:37:49.944Z,28.01
2023-05-01T16:40:25.957Z,28.04
2023-05-01T16:43:02.195Z,28.32
2023-05-01T16:45:33.897Z,28.47
2023-05-01T16:48:05.047Z,28.61
2023-05-01T16:50:38.091Z,28.72
2023-05-01T16:53:13.302Z,28.92
2023-05-01T16:55:47.063Z,28.83
2023-05-01T16:58:50.573Z,28.90
2023-05-01T17:01:21.396Z,29.05
2023-05-01T17:03:52.636Z,29.17
2023-05-01T17:06:23.562Z,29.24
2023-05-01T17:08:55.051Z,29.29
2023-05-01T17:11:49.248Z,29.41
2023-05-01T17:14:36.557Z,29.40
2023-05-01T17:17:09.589Z,29.60
2023-05-01T17:19:41.286Z,29.61
2023-05-01T17:22:15.214Z,29.76
2023-05-01T17:24:46.096Z,29.83
2023-05-01T17:27:23.083Z,29.88
2023-05-01T17:29:55.601Z,29.93
2023-05-01T17:32:45.277Z,29.95
2023-05-01T17:35:18.244Z,30.09
2023-05-01T17:37:49.579Z,30.17
2023-05-01T17:40:23.220Z,30.21
2023-05-01T17:42:54.056Z,30.30
2023-05-01T17:45:28.088Z,30.39
2023-05-01T17:48:02.542Z,30.44
2023-05-01T17:50:33.504Z,30.49
2023-05-01T17:53:06.806Z,30.55
2023-05-01T17:55:51.197Z,30.60
2023-05-01T17:58:45.320Z,30.74
2023-05-01T18:01:21.306Z,30.84
2023-05-01T18:03:52.240Z,30.96
2023-05-01T18:06:40.638Z,31.02
2023-05-01T18:09:36.745Z,31.02
2023-05-01T18:12:13.127Z,31.19
2023-05-01T18:14:46.408Z,31.41
2023-05-01T18:17:17.217Z,31.40
2023-05-01T18:19:48.186Z,31.40
2023-05-01T18:22:19.023Z,31.53
2023-05-01T18:24:49.888Z,31.60
2023-05-01T18:27:20.736Z,31.64
2023-05-01T18:29:54.493Z,31.82
2023-05-01T18:32:43.235Z,31.91
2023-05-01T18:35:17.747Z,31.99
2023-05-01T18:37:48.638Z,32.06
2023-05-01T18:40:19.922Z,32.14
2023-05-01T18:42:50.647Z,32.15
2023-05-01T18:45:21.657Z,32.20
2023-05-01T18:47:53.433Z,32.26
2023-05-01T18:50:26.891Z,32.20
2023-05-01T18:52:58.178Z,32.28
2023-05-01T18:55:29.701Z,32.21
2023-05-01T18:58:02.082Z,32.27
2023-05-01T19:00:33.189Z,32.45
2023-05-01T19:03:05.534Z,32.36
2023-05-01T19:05:36.606Z,32.37
2023-05-01T19:08:09.564Z,32.51
2023-05-01T19:10:42.218Z,32.63
2023-05-01T19:13:13.207Z,32.69
2023-05-01T19:15:44.455Z,32.81
2023-05-01T19:18:18.268Z,32.88
2023-05-01T19:20:49.171Z,32.92
2023-05-01T19:23:27.530Z,32.93
2023-05-01T19:26:00.788Z,33.01
2023-05-01T19:28:31.553Z,33.02
2023-05-01T19:31:02.725Z,33.10
2023-05-01T19:33:34.130Z,33.16
2023-05-01T19:36:05.611Z,33.22
2023-05-01T19:38:52.740Z,33.40
2023-05-01T19:41:27.723Z,33.50
2023-05-01T19:43:59.954Z,33.56
2023-05-01T19:46:30.974Z,33.60
2023-05-01T19:49:02.063Z,33.66
2023-05-01T19:51:32.962Z,33.73
2023-05-01T19:54:28.980Z,33.74
2023-05-01T19:57:00.064Z,33.80
2023-05-01T19:59:31.034Z,33.94
2023-05-01T20:02:01.819Z,33.88
2023-05-01T20:04:32.732Z,34.07
2023-05-01T20:07:04.784Z,34.04
2023-05-01T20:09:35.558Z,34.18
2023-05-01T20:12:06.642Z,34.26
2023-05-01T20:14:37.411Z,34.34
2023-05-01T20:17:09.418Z,34.42
2023-05-01T20:19:40.230Z,34.44
2023-05-01T20:22:11.325Z,34.61
2023-05-01T20:24:42.006Z,34.71
2023-05-01T20:27:13.051Z,34.72
2023-05-01T20:29:44.135Z,34.87
2023-05-01T20:32:14.812Z,34.92
2023-05-01T20:34:45.530Z,35.05
2023-05-01T20:37:16.636Z,35.14
2023-05-01T20:39:47.367Z,35.24
2023-05-01T20:42:18.071Z,35.38
2023-05-01T20:44:48.822Z,35.43
2023-05-01T20:47:19.441Z,35.60
2023-05-01T20:49:50.199Z,35.74
2023-05-01T20:52:21.424Z,35.76
2023-05-01T20:54:52.354Z,35.81
2023-05-01T20:57:23.097Z,35.98
2023-05-01T20:59:53.884Z,35.97
2023-05-01T21:02:24.635Z,36.05
2023-05-01T21:04:55.474Z,36.15
2023-05-01T21:07:26.594Z,36.09
2023-05-01T21:09:57.569Z,36.30
2023-05-01T21:12:29.414Z,36.24
2023-05-01T21:15:01.199Z,36.25
2023-05-01T21:17:33.218Z,36.38
2023-05-01T21:20:05.751Z,36.37
2023-05-01T21:22:37.063Z,36.37
2023-05-01T21:25:09.891Z,36.46
2023-05-01T21:27:43.160Z,36.38
2023-05-01T21:30:19.836Z,36.45
2023-05-01T21:32:51.800Z,36.47
2023-05-01T21:35:22.708Z,36.45
2023-05-01T21:37:54.097Z,36.59
2023-05-01T21:40:25.279Z,36.69
2023-05-01T21:42:57.271Z,36.69
2023-05-01T21:45:29.082Z,36.82
2023-05-01T21:47:59.930Z,36.72
2023-05-01T21:50:36.146Z,36.95
2023-05-01T21:53:10.155Z,36.99
2023-05-01T21:55:41.508Z,37.11
2023-05-01T21:58:12.315Z,37.18
2023-05-01T22:00:43.181Z,37.39
2023-05-01T22:03:17.396Z,37.34
2023-05-01T22:05:48.170Z,37.39
2023-05-01T22:08:19.036Z,37.47
2023-05-01T22:10:49.759Z,37.51
2023-05-01T22:13:20.524Z,37.52
2023-05-01T22:15:51.667Z,37.63
2023-05-01T22:18:22.845Z,37.73
2023-05-01T22:20:53.733Z,37.66
2023-05-01T22:32:34.225Z,38.04
2023-05-01T22:35:05.321Z,38.12
2023-05-01T22:37:36.055Z,38.17
2023-05-01T22:40:08.624Z,38.37
2023-05-01T22:42:39.445Z,38.25
2023-05-01T22:45:11.513Z,38.40
2023-05-01T22:47:42.739Z,38.49
2023-05-01T22:50:14.055Z,38.54
2023-05-01T22:52:46.482Z,38.56
2023-05-01T22:55:17.740Z,38.71
2023-05-01T22:57:51.031Z,38.86
2023-05-01T23:00:22.338Z,38.92
2023-05-01T23:02:53.690Z,38.95
2023-05-01T23:05:24.515Z,39.05
2023-05-01T23:07:55.260Z,39.11
2023-05-01T23:10:31.125Z,39.15
2023-05-01T23:13:03.141Z,39.29
2023-05-01T23:15:33.948Z,39.22
2023-05-01T23:18:04.855Z,39.40
2023-05-01T23:20:40.050Z,39.65
2023-05-01T23:23:12.165Z,39.70
2023-05-01T23:25:49.067Z,39.69
2023-05-01T23:28:24.803Z,39.72
2023-05-01T23:30:59.000Z,39.88
2023-05-01T23:33:34.833Z,40.07
2023-05-01T23:36:10.318Z,40.13
2023-05-01T23:38:41.520Z,40.20
2023-05-01T23:41:13.048Z,40.37
2023-05-01T23:43:46.421Z,40.33
2023-05-01T23:46:17.996Z,40.52
2023-05-01T23:48:48.882Z,40.44
2023-05-01T23:51:19.668Z,40.71
2023-05-01T23:53:50.374Z,40.76
2023-05-01T23:56:21.144Z,40.96
2023-05-01T23:58:51.983Z,40.84
